createdAt,value
2023-07-14T00:01:46.319Z,83.40
2023-07-14T00:04:19.299Z,83.40
2023-07-14T00:06:48.289Z,83.50
2023-07-14T00:09:24.828Z,83.60
2023-07-14T00:11:53.092Z,83.50
2023-07-14T00:14:21.346Z,83.40
2023-07-14T00:16:49.988Z,83.40
2023-07-14T00:19:21.197Z,83.50
2023-07-14T00:21:51.039Z,83.60
2023-07-14T00:24:22.353Z,83.60
2023-07-14T00:26:54.621Z,83.60
2023-07-14T00:29:38.798Z,83.50
2023-07-14T00:32:14.760Z,83.40
2023-07-14T00:34:45.718Z,83.40
2023-07-14T00:37:14.421Z,83.40
2023-07-14T00:39:44.770Z,83.30
2023-07-14T00:42:15.238Z,83.40
2023-07-14T00:44:44.865Z,83.20
2023-07-14T00:47:20.673Z,83.10
2023-07-14T00:49:53.734Z,83.10
2023-07-14T00:52:29.552Z,83.00
2023-07-14T00:54:57.592Z,83.00
2023-07-14T00:57:29.754Z,83.10
2023-07-14T01:00:01.994Z,83.20
2023-07-14T01:02:30.891Z,83.10
2023-07-14T01:05:05.807Z,83.00
2023-07-14T01:07:38.535Z,83.20
2023-07-14T01:10:09.592Z,83.30
2023-07-14T01:12:41.875Z,83.10
2023-07-14T01:15:10.466Z,83.30
2023-07-14T01:17:39.475Z,83.30
2023-07-14T01:20:10.895Z,83.40
2023-07-14T01:22:45.416Z,83.40
2023-07-14T01:25:23.432Z,83.50
2023-07-14T01:27:53.110Z,83.50
2023-07-14T01:30:21.718Z,83.50
2023-07-14T01:32:52.539Z,83.60
2023-07-14T01:35:27.014Z,83.50
2023-07-14T01:37:55.342Z,83.60
2023-07-14T01:40:23.723Z,83.60
2023-07-14T01:42:56.861Z,83.60
2023-07-14T01:45:27.438Z,83.70
2023-07-14T01:47:59.265Z,83.50
2023-07-14T01:50:28.698Z,83.30
2023-07-14T01:53:01.898Z,83.50
2023-07-14T01:55:35.712Z,83.50
2023-07-14T01:58:10.184Z,83.30
2023-07-14T02:00:40.217Z,83.10
2023-07-14T02:03:12.048Z,83.30
2023-07-14T02:05:40.788Z,83.50
2023-07-14T02:08:15.200Z,83.50
2023-07-14T02:10:43.683Z,83.60
2023-07-14T02:13:14.682Z,83.80
2023-07-14T02:15:42.997Z,83.80
2023-07-14T02:18:17.005Z,83.80
2023-07-14T02:20:48.259Z,83.90
2023-07-14T02:23:20.550Z,83.80
2023-07-14T02:25:53.975Z,83.90
2023-07-14T02:28:23.510Z,84.10
2023-07-14T02:30:55.743Z,84.10
2023-07-14T02:33:27.786Z,84.10
2023-07-14T02:36:02.353Z,84.00
2023-07-14T02:38:30.957Z,83.70
2023-07-14T02:41:07.675Z,83.60
2023-07-14T02:43:37.186Z,83.70
2023-07-14T02:46:12.145Z,83.70
2023-07-14T02:48:42.674Z,83.80
2023-07-14T02:51:11.770Z,83.70
2023-07-14T02:53:40.877Z,83.70
2023-07-14T02:56:09.013Z,83.70
2023-07-14T02:58:38.550Z,83.60
2023-07-14T03:01:08.771Z,83.70
2023-07-14T03:03:38.886Z,83.60
2023-07-14T03:06:07.177Z,83.70
2023-07-14T03:08:36.004Z,83.80
2023-07-14T03:11:04.358Z,83.90
2023-07-14T03:13:32.482Z,84.10
2023-07-14T03:16:02.018Z,84.30
2023-07-14T03:18:30.256Z,84.30
2023-07-14T03:20:58.967Z,84.20
2023-07-14T03:23:27.133Z,84.30
2023-07-14T03:25:56.062Z,84.60
2023-07-14T03:28:24.393Z,84.60
2023-07-14T03:30:52.611Z,84.50
2023-07-14T03:33:22.335Z,84.60
2023-07-14T03:35:50.584Z,84.60
2023-07-14T03:38:18.832Z,84.60
2023-07-14T03:40:46.996Z,84.50
2023-07-14T03:43:15.119Z,84.40
2023-07-14T03:45:43.252Z,84.60
2023-07-14T03:48:11.321Z,84.70
2023-07-14T03:50:40.902Z,84.70
2023-07-14T03:53:08.989Z,84.50
2023-07-14T03:55:37.128Z,84.50
2023-07-14T03:58:05.753Z,84.60
2023-07-14T04:00:34.779Z,84.70
2023-07-14T04:03:02.967Z,84.80
2023-07-14T04:05:31.203Z,84.70
2023-07-14T04:08:00.937Z,84.90
2023-07-14T04:10:29.566Z,84.70
2023-07-14T04:13:00.376Z,84.70
2023-07-14T04:15:28.550Z,84.50
2023-07-14T04:17:56.717Z,84.40
2023-07-14T04:20:24.897Z,84.50
2023-07-14T04:22:53.115Z,84.50
2023-07-14T04:25:22.988Z,84.40
2023-07-14T04:27:53.764Z,84.30
2023-07-14T04:30:22.119Z,84.20
2023-07-14T04:32:51.457Z,84.20
2023-07-14T04:35:19.632Z,84.10
2023-07-14T04:37:47.777Z,84.20
2023-07-14T04:40:33.807Z,84.10
2023-07-14T04:43:05.638Z,84.00
2023-07-14T04:45:38.007Z,83.80
2023-07-14T04:48:06.671Z,83.60
2023-07-14T04:50:35.677Z,83.50
2023-07-14T04:53:06.634Z,83.40
2023-07-14T04:55:37.601Z,83.40
2023-07-14T04:58:07.414Z,83.40
2023-07-14T05:00:37.218Z,83.30
2023-07-14T05:03:06.917Z,83.30
2023-07-14T05:05:35.380Z,83.30
2023-07-14T05:08:03.675Z,83.20
2023-07-14T05:10:33.805Z,83.70
2023-07-14T05:13:02.996Z,83.80
2023-07-14T05:15:32.576Z,83.90
2023-07-14T05:18:00.803Z,83.70
2023-07-14T05:20:30.164Z,83.30
2023-07-14T05:22:58.425Z,83.30
2023-07-14T05:25:26.601Z,83.10
2023-07-14T05:27:54.661Z,83.00
2023-07-14T05:30:23.537Z,82.70
2023-07-14T05:32:53.000Z,82.20
2023-07-14T05:35:21.202Z,81.80
2023-07-14T05:37:49.397Z,81.40
2023-07-14T05:40:19.073Z,80.80
2023-07-14T05:42:48.220Z,81.00
2023-07-14T05:45:16.686Z,80.60
2023-07-14T05:47:47.831Z,80.00
2023-07-14T05:50:18.251Z,79.80
2023-07-14T05:52:47.529Z,79.80
2023-07-14T05:55:15.826Z,79.60
2023-07-14T05:57:45.128Z,79.70
2023-07-14T06:00:17.831Z,79.70
2023-07-14T06:02:49.052Z,79.40
2023-07-14T06:05:20.876Z,79.50
2023-07-14T06:07:49.160Z,79.40
2023-07-14T06:10:17.984Z,79.50
2023-07-14T06:12:46.120Z,79.50
2023-07-14T06:15:14.181Z,79.40
2023-07-14T06:17:42.298Z,79.50
2023-07-14T06:20:13.028Z,79.40
2023-07-14T06:22:43.506Z,78.80
2023-07-14T06:25:11.575Z,78.70
2023-07-14T06:27:39.637Z,78.70
2023-07-14T06:30:09.929Z,78.70
2023-07-14T06:32:40.182Z,78.50
2023-07-14T06:35:11.160Z,78.30
2023-07-14T06:37:39.724Z,78.50
2023-07-14T06:40:10.722Z,78.40
2023-07-14T06:42:39.142Z,77.90
2023-07-14T06:45:08.353Z,77.40
2023-07-14T06:47:36.487Z,76.90
2023-07-14T06:50:05.641Z,77.40
2023-07-14T06:52:34.421Z,77.40
2023-07-14T06:55:02.569Z,77.00
2023-07-14T06:57:32.154Z,76.80
2023-07-14T07:00:00.365Z,77.00
2023-07-14T07:02:29.668Z,77.00
2023-07-14T07:04:57.875Z,77.00
2023-07-14T07:07:26.036Z,77.00
2023-07-14T07:09:56.361Z,77.00
2023-07-14T07:12:24.739Z,77.10
2023-07-14T07:14:54.154Z,76.40
2023-07-14T07:17:22.298Z,76.00
2023-07-14T07:19:50.492Z,76.10
2023-07-14T07:22:18.722Z,75.60
2023-07-14T07:24:46.819Z,75.30
2023-07-14T07:27:14.937Z,75.00
2023-07-14T07:29:43.996Z,74.10
2023-07-14T07:32:13.771Z,74.00
2023-07-14T07:34:41.955Z,74.40
2023-07-14T07:37:10.060Z,73.60
2023-07-14T07:39:38.363Z,74.00
2023-07-14T07:42:07.521Z,73.30
2023-07-14T07:44:36.098Z,73.10
2023-07-14T07:47:04.448Z,72.80
2023-07-14T07:49:33.942Z,73.10
2023-07-14T07:52:02.185Z,72.80
2023-07-14T07:54:30.393Z,72.20
2023-07-14T07:56:58.474Z,71.80
2023-07-14T07:59:26.634Z,72.30
2023-07-14T08:01:54.773Z,72.10
2023-07-14T08:04:23.226Z,72.00
2023-07-14T08:06:52.840Z,72.20
2023-07-14T08:09:21.578Z,72.30
2023-07-14T08:11:50.072Z,72.20
2023-07-14T08:14:19.887Z,72.20
2023-07-14T08:16:48.140Z,72.40
2023-07-14T08:19:16.359Z,72.30
2023-07-14T08:21:44.539Z,72.10
2023-07-14T08:24:14.226Z,72.20
2023-07-14T08:26:42.876Z,72.30
2023-07-14T08:29:11.150Z,72.60
2023-07-14T08:31:39.293Z,72.80
2023-07-14T08:34:08.545Z,72.80
2023-07-14T08:36:38.178Z,72.60
2023-07-14T08:39:07.393Z,72.40
2023-07-14T08:41:41.841Z,71.90
2023-07-14T08:44:29.934Z,71.70
2023-07-14T08:47:08.078Z,71.50
2023-07-14T08:49:41.643Z,71.20
2023-07-14T08:52:17.530Z,70.80
2023-07-14T08:54:49.759Z,70.70
2023-07-14T08:57:25.648Z,70.40
2023-07-14T08:59:57.680Z,69.70
2023-07-14T09:02:33.175Z,70.00
2023-07-14T09:05:02.691Z,70.20
2023-07-14T09:07:30.997Z,70.10
2023-07-14T09:09:59.339Z,69.60
2023-07-14T09:12:37.872Z,69.20
2023-07-14T09:15:09.600Z,69.30
2023-07-14T09:18:01.275Z,69.40
2023-07-14T09:21:00.154Z,68.80
2023-07-14T09:23:50.192Z,68.80
2023-07-14T09:26:26.437Z,68.70
2023-07-14T09:28:58.760Z,68.80
2023-07-14T09:31:39.577Z,69.20
2023-07-14T09:34:15.460Z,68.50
2023-07-14T09:36:44.226Z,68.20
2023-07-14T09:39:19.309Z,68.50
2023-07-14T09:41:49.286Z,68.50
2023-07-14T09:44:19.033Z,67.30
2023-07-14T09:46:49.745Z,67.90
2023-07-14T09:49:27.002Z,67.30
2023-07-14T09:52:21.972Z,67.40
2023-07-14T09:54:53.692Z,65.40
2023-07-14T09:57:38.832Z,66.00
2023-07-14T10:00:22.017Z,65.40
2023-07-14T10:03:04.662Z,65.00
2023-07-14T10:05:38.573Z,63.80
2023-07-14T10:08:17.936Z,64.60
2023-07-14T10:10:47.037Z,64.40
2023-07-14T10:13:23.153Z,63.90
2023-07-14T10:15:59.646Z,63.30
2023-07-14T10:18:29.405Z,62.80
2023-07-14T10:21:01.900Z,62.90
2023-07-14T10:23:30.312Z,62.30
2023-07-14T10:25:58.398Z,62.00
2023-07-14T10:28:30.416Z,62.40
2023-07-14T10:31:06.984Z,62.30
2023-07-14T10:33:44.823Z,62.00
2023-07-14T10:36:19.404Z,61.10
2023-07-14T10:38:54.032Z,61.10
2023-07-14T10:41:24.432Z,61.20
2023-07-14T10:43:58.070Z,60.40
2023-07-14T10:46:32.578Z,60.60
2023-07-14T10:49:09.974Z,60.30
2023-07-14T10:51:43.159Z,59.60
2023-07-14T10:54:17.929Z,59.30
2023-07-14T10:56:50.501Z,58.90
2023-07-14T10:59:26.510Z,58.50
2023-07-14T11:02:07.104Z,58.70
2023-07-14T11:04:40.277Z,59.20
2023-07-14T11:07:16.725Z,59.90
2023-07-14T11:09:44.894Z,59.80
2023-07-14T11:12:23.723Z,59.60
2023-07-14T11:14:58.330Z,59.20
2023-07-14T11:17:34.282Z,59.00
2023-07-14T11:20:15.062Z,58.70
2023-07-14T11:23:01.074Z,58.70
2023-07-14T11:25:35.716Z,59.40
2023-07-14T11:28:18.699Z,60.10
2023-07-14T11:30:52.677Z,59.80
2023-07-14T11:33:28.473Z,59.40
2023-07-14T11:36:05.273Z,59.00
2023-07-14T11:38:42.706Z,59.00
2023-07-14T11:41:11.346Z,59.00
2023-07-14T11:43:40.403Z,58.80
2023-07-14T11:46:14.773Z,58.40
2023-07-14T11:49:00.668Z,58.30
2023-07-14T11:51:43.490Z,58.50
2023-07-14T11:54:18.986Z,58.60
2023-07-14T11:57:01.488Z,58.10
2023-07-14T11:59:31.609Z,57.80
2023-07-14T12:02:30.416Z,57.80
2023-07-14T12:05:03.058Z,58.20
2023-07-14T12:07:31.591Z,57.10
2023-07-14T12:10:02.959Z,56.80
2023-07-14T12:12:34.501Z,56.90
2023-07-14T12:15:04.056Z,56.50
2023-07-14T12:17:49.961Z,56.50
2023-07-14T12:20:38.729Z,56.30
2023-07-14T12:23:11.899Z,55.30
2023-07-14T12:25:44.952Z,55.30
2023-07-14T12:28:22.120Z,54.80
2023-07-14T12:30:52.648Z,55.00
2023-07-14T12:33:22.921Z,55.10
2023-07-14T12:35:53.567Z,55.00
2023-07-14T12:38:24.122Z,54.80
2023-07-14T12:40:55.297Z,54.50
2023-07-14T12:43:29.244Z,54.20
2023-07-14T12:45:58.762Z,54.20
2023-07-14T12:48:29.296Z,54.20
2023-07-14T12:51:00.378Z,54.00
2023-07-14T12:53:32.875Z,53.40
2023-07-14T12:56:07.081Z,53.10
2023-07-14T12:58:36.197Z,53.10
2023-07-14T13:01:05.833Z,53.10
2023-07-14T13:03:38.242Z,53.10
2023-07-14T13:06:07.840Z,52.80
2023-07-14T13:08:36.090Z,52.80
2023-07-14T13:11:09.673Z,53.00
2023-07-14T13:13:41.623Z,52.30
2023-07-14T13:16:13.478Z,52.50
2023-07-14T13:18:41.845Z,52.40
2023-07-14T13:21:36.025Z,52.30
2023-07-14T13:24:16.372Z,51.70
2023-07-14T13:26:51.641Z,51.40
2023-07-14T13:29:24.414Z,50.90
2023-07-14T13:31:58.201Z,51.30
2023-07-14T13:34:30.274Z,50.90
2023-07-14T13:37:04.834Z,51.20
2023-07-14T13:39:37.753Z,51.00
2023-07-14T13:42:08.761Z,51.10
2023-07-14T13:44:45.012Z,50.40
2023-07-14T13:47:19.280Z,50.00
2023-07-14T13:49:48.433Z,49.70
2023-07-14T13:52:20.726Z,49.60
2023-07-14T13:54:50.713Z,49.90
2023-07-14T13:57:19.114Z,49.70
2023-07-14T13:59:48.036Z,49.90
2023-07-14T14:02:31.383Z,49.80
2023-07-14T14:04:59.569Z,50.30
2023-07-14T14:07:29.096Z,50.60
2023-07-14T14:09:57.234Z,50.60
2023-07-14T14:12:25.362Z,50.80
2023-07-14T14:14:53.494Z,50.80
2023-07-14T14:17:36.694Z,51.10
2023-07-14T14:20:08.950Z,51.20
2023-07-14T14:22:38.531Z,51.00
2023-07-14T14:25:13.480Z,51.00
2023-07-14T14:27:41.679Z,51.00
2023-07-14T14:30:11.200Z,51.30
2023-07-14T14:32:40.205Z,51.20
2023-07-14T14:35:26.209Z,50.90
2023-07-14T14:37:57.019Z,50.30
2023-07-14T14:40:25.466Z,50.70
2023-07-14T14:42:55.536Z,48.80
2023-07-14T14:45:26.011Z,47.10
2023-07-14T14:47:54.945Z,45.00
2023-07-14T14:50:26.105Z,43.90
2023-07-14T14:52:55.684Z,42.60
2023-07-14T14:55:24.074Z,41.70
2023-07-14T14:57:55.308Z,41.60
2023-07-14T15:00:26.226Z,40.90
2023-07-14T15:02:55.221Z,40.10
2023-07-14T15:05:24.692Z,39.40
2023-07-14T15:07:56.397Z,37.80
2023-07-14T15:10:27.508Z,36.80
2023-07-14T15:12:56.234Z,36.80
2023-07-14T15:15:29.477Z,36.50
2023-07-14T15:17:58.606Z,36.30
2023-07-14T15:20:27.345Z,36.30
2023-07-14T15:22:57.433Z,36.20
2023-07-14T15:25:26.510Z,36.30
2023-07-14T15:27:55.142Z,36.30
2023-07-14T15:30:28.143Z,35.70
2023-07-14T15:32:58.132Z,35.60
2023-07-14T15:35:27.946Z,35.60
2023-07-14T15:37:59.074Z,35.90
2023-07-14T15:40:29.307Z,36.60
2023-07-14T15:42:57.878Z,36.20
2023-07-14T15:45:28.241Z,35.50
2023-07-14T15:47:56.959Z,35.50
2023-07-14T15:50:27.437Z,35.80
2023-07-14T15:52:58.620Z,35.90
2023-07-14T15:55:30.922Z,36.20
2023-07-14T15:57:59.045Z,36.30
2023-07-14T16:00:27.810Z,35.90
2023-07-14T16:02:56.075Z,36.40
2023-07-14T16:05:24.470Z,37.10
2023-07-14T16:07:55.802Z,37.60
2023-07-14T16:10:25.605Z,38.20
2023-07-14T16:12:53.908Z,38.70
2023-07-14T16:15:26.228Z,38.90
2023-07-14T16:17:56.009Z,39.40
2023-07-14T16:20:27.853Z,39.70
2023-07-14T16:22:58.553Z,40.20
2023-07-14T16:25:28.117Z,40.60
2023-07-14T16:27:56.424Z,40.80
2023-07-14T16:30:28.456Z,41.80
2023-07-14T16:32:56.841Z,42.30
2023-07-14T16:35:27.371Z,42.90
2023-07-14T16:38:03.299Z,42.90
2023-07-14T16:40:37.088Z,43.10
2023-07-14T16:43:07.771Z,43.40
2023-07-14T16:45:36.004Z,43.80
2023-07-14T16:48:04.562Z,41.70
2023-07-14T16:50:33.384Z,40.80
2023-07-14T16:53:01.983Z,39.20
2023-07-14T16:55:32.075Z,38.10
2023-07-14T16:58:02.489Z,36.70
2023-07-14T17:00:33.816Z,35.70
2023-07-14T17:03:03.746Z,35.30
2023-07-14T17:05:35.664Z,34.70
2023-07-14T17:08:06.112Z,34.20
2023-07-14T17:10:34.521Z,33.70
2023-07-14T17:13:20.389Z,33.90
2023-07-14T17:15:54.195Z,33.80
2023-07-14T17:18:25.979Z,33.60
2023-07-14T17:20:55.601Z,33.60
2023-07-14T17:23:30.779Z,33.40
2023-07-14T17:26:00.133Z,33.20
2023-07-14T17:28:30.915Z,33.00
2023-07-14T17:30:59.062Z,33.10
2023-07-14T17:33:28.834Z,33.20
2023-07-14T17:36:01.457Z,33.00
2023-07-14T17:38:32.694Z,33.20
2023-07-14T17:41:01.199Z,33.50
2023-07-14T17:43:32.877Z,33.70
2023-07-14T17:46:01.544Z,33.70
2023-07-14T17:48:29.678Z,33.80
2023-07-14T17:51:03.438Z,33.90
2023-07-14T17:53:32.539Z,34.00
2023-07-14T17:56:01.265Z,34.20
2023-07-14T17:58:30.802Z,34.10
2023-07-14T18:00:59.591Z,34.00
2023-07-14T18:03:30.880Z,34.10
2023-07-14T18:06:00.146Z,34.10
2023-07-14T18:08:30.048Z,34.40
2023-07-14T18:11:00.805Z,35.10
2023-07-14T18:13:33.239Z,35.90
2023-07-14T18:16:01.332Z,36.60
2023-07-14T18:18:29.520Z,37.20
2023-07-14T18:21:00.065Z,37.70
2023-07-14T18:23:29.941Z,37.80
2023-07-14T18:25:58.819Z,38.00
2023-07-14T18:28:30.783Z,38.10
2023-07-14T18:31:01.456Z,38.50
2023-07-14T18:33:32.466Z,38.70
2023-07-14T18:36:01.433Z,39.20
2023-07-14T18:38:31.102Z,39.80
2023-07-14T18:41:01.174Z,40.10
2023-07-14T18:43:35.604Z,40.80
2023-07-14T18:46:06.540Z,41.20
2023-07-14T18:48:36.271Z,41.40
2023-07-14T18:51:17.677Z,41.80
2023-07-14T18:53:46.492Z,42.20
2023-07-14T18:56:15.508Z,42.70
2023-07-14T18:58:44.135Z,43.00
2023-07-14T19:01:17.120Z,43.60
2023-07-14T19:03:48.595Z,43.70
2023-07-14T19:06:21.769Z,44.00
2023-07-14T19:08:50.597Z,44.50
2023-07-14T19:11:20.797Z,44.80
2023-07-14T19:13:49.539Z,45.30
2023-07-14T19:16:26.485Z,45.60
2023-07-14T19:18:55.122Z,45.70
2023-07-14T19:21:25.776Z,46.10
2023-07-14T19:23:54.034Z,46.20
2023-07-14T19:26:22.138Z,46.30
2023-07-14T19:28:50.402Z,46.60
2023-07-14T19:31:28.142Z,46.80
2023-07-14T19:33:56.857Z,47.00
2023-07-14T19:36:25.354Z,47.20
2023-07-14T19:38:53.485Z,47.60
2023-07-14T19:41:21.817Z,47.70
2023-07-14T19:43:52.270Z,47.70
2023-07-14T19:46:22.068Z,48.00
2023-07-14T19:48:50.284Z,48.20
2023-07-14T19:51:23.211Z,48.30
2023-07-14T19:53:52.044Z,48.50
2023-07-14T19:56:22.165Z,48.60
2023-07-14T19:58:50.452Z,48.60
2023-07-14T20:01:21.061Z,48.80
2023-07-14T20:03:51.252Z,48.80
2023-07-14T20:06:21.243Z,49.00
2023-07-14T20:08:54.399Z,49.10
2023-07-14T20:11:24.095Z,49.10
2023-07-14T20:13:52.613Z,49.40
2023-07-14T20:16:23.065Z,49.40
2023-07-14T20:18:52.929Z,49.80
2023-07-14T20:21:27.162Z,49.90
2023-07-14T20:23:58.752Z,50.00
2023-07-14T20:26:26.879Z,49.90
2023-07-14T20:28:55.097Z,50.00
2023-07-14T20:31:24.510Z,50.10
2023-07-14T20:33:54.820Z,50.10
2023-07-14T20:36:25.282Z,50.10
2023-07-14T20:38:54.710Z,50.20
2023-07-14T20:41:29.985Z,50.20
2023-07-14T20:43:58.623Z,50.20
2023-07-14T20:46:28.301Z,50.20
2023-07-14T20:49:14.744Z,50.10
2023-07-14T20:51:45.173Z,49.90
2023-07-14T20:54:15.545Z,50.00
2023-07-14T20:56:44.505Z,50.00
2023-07-14T20:59:12.621Z,50.10
2023-07-14T21:01:40.958Z,50.30
2023-07-14T21:04:22.371Z,50.10
2023-07-14T21:06:51.665Z,50.30
2023-07-14T21:09:20.005Z,50.10
2023-07-14T21:11:48.527Z,50.20
2023-07-14T21:14:18.224Z,50.10
2023-07-14T21:16:46.482Z,50.40
2023-07-14T21:19:15.951Z,50.60
2023-07-14T21:21:44.007Z,50.30
2023-07-14T21:24:19.368Z,50.50
2023-07-14T21:26:47.794Z,50.40
2023-07-14T21:29:18.923Z,50.60
2023-07-14T21:31:48.003Z,50.40
2023-07-14T21:34:19.816Z,50.60
2023-07-14T21:36:48.740Z,50.80
2023-07-14T21:39:21.976Z,50.80
2023-07-14T21:41:51.867Z,50.70
2023-07-14T21:44:20.562Z,50.70
2023-07-14T21:46:48.738Z,50.50
2023-07-14T21:49:19.989Z,50.70
2023-07-14T21:51:48.583Z,50.60
2023-07-14T21:54:18.234Z,50.70
2023-07-14T21:56:48.641Z,51.00
2023-07-14T21:59:19.769Z,50.90
2023-07-14T22:01:51.591Z,50.60
2023-07-14T22:04:29.725Z,50.70
2023-07-14T22:06:59.008Z,50.90
2023-07-14T22:09:27.897Z,50.70
2023-07-14T22:11:56.707Z,50.70
2023-07-14T22:14:26.446Z,50.80
2023-07-14T22:16:55.778Z,50.60
2023-07-14T22:19:25.994Z,50.40
2023-07-14T22:21:54.496Z,50.30
2023-07-14T22:24:22.675Z,50.60
2023-07-14T22:26:50.731Z,50.50
2023-07-14T22:29:18.874Z,50.50
2023-07-14T22:31:48.256Z,50.70
2023-07-14T22:34:18.982Z,50.70
2023-07-14T22:36:48.575Z,50.70
2023-07-14T22:39:20.252Z,50.60
2023-07-14T22:41:50.001Z,50.70
2023-07-14T22:44:19.323Z,50.80
2023-07-14T22:46:47.879Z,51.00
2023-07-14T22:49:16.754Z,50.90
2023-07-14T22:51:54.962Z,50.80
2023-07-14T22:54:24.351Z,51.00
2023-07-14T22:56:52.603Z,51.10
2023-07-14T22:59:20.966Z,51.10
2023-07-14T23:01:50.444Z,50.80
2023-07-14T23:04:18.743Z,51.20
2023-07-14T23:06:48.312Z,51.20
2023-07-14T23:09:16.440Z,51.20
2023-07-14T23:11:45.179Z,51.60
2023-07-14T23:14:13.950Z,51.60
2023-07-14T23:16:42.309Z,51.90
2023-07-14T23:19:11.994Z,51.70
2023-07-14T23:21:41.262Z,51.80
2023-07-14T23:24:17.238Z,51.90
2023-07-14T23:26:45.589Z,52.40
2023-07-14T23:29:13.925Z,52.00
2023-07-14T23:31:45.631Z,51.90
2023-07-14T23:34:14.569Z,52.20
2023-07-14T23:36:44.197Z,52.70
2023-07-14T23:39:13.711Z,52.70
2023-07-14T23:41:41.738Z,52.60
2023-07-14T23:44:18.169Z,52.60
2023-07-14T23:46:47.424Z,52.40
2023-07-14T23:49:15.742Z,52.60
2023-07-14T23:51:44.104Z,52.40
2023-07-14T23:54:13.575Z,52.60
2023-07-14T23:56:41.692Z,52.60
2023-07-14T23:59:10.642Z,52.80
